Time;durP1;ratioP1;P1;durP2;ratioP2;P2;SDS_P1;SDS_P2;PMS_P1;PMS_P2;Temp;Humidity;BMP_temperature;BMP_pressure;BME280_temperature;BME280_humidity;BME280_pressure;Samples;Min_cycle;Max_cycle;Signal;HPM_P1;HPM_P2
2022/06/28 00:00:27;;;;;;;44.28;27.17;;;11.10;99.90;;;;;;5075855;28;20040;-24
2022/06/28 00:02:53;;;;;;;45.03;26.35;;;11.10;99.90;;;;;;5076554;28;20177;-24
2022/06/28 00:05:19;;;;;;;45.35;27.70;;;11.00;99.90;;;;;;5074749;28;20041;-24
2022/06/28 00:07:45;;;;;;;47.63;26.73;;;11.00;99.90;;;;;;5075787;28;20060;-24
2022/06/28 00:10:12;;;;;;;40.60;26.70;;;11.00;99.90;;;;;;5075648;28;20071;-24
2022/06/28 00:12:39;;;;;;;44.53;28.13;;;11.00;99.90;;;;;;5057880;28;20048;-24
2022/06/28 00:17:52;;;;;;;43.35;28.88;;;10.90;99.90;;;;;;5075419;28;20109;-24
2022/06/28 00:20:18;;;;;;;49.53;31.98;;;10.90;99.90;;;;;;5076249;28;20145;-24
2022/06/28 00:22:44;;;;;;;54.17;31.73;;;10.90;99.90;;;;;;5075020;28;20071;-24
2022/06/28 00:25:10;;;;;;;52.28;32.47;;;10.80;99.90;;;;;;5075832;28;20466;-24
2022/06/28 00:27:36;;;;;;;48.75;31.75;;;10.80;99.90;;;;;;5075257;28;20049;-24
2022/06/28 00:30:04;;;;;;;54.47;33.58;;;10.90;99.90;;;;;;5075168;28;20044;-24
2022/06/28 00:32:30;;;;;;;53.83;35.08;;;10.80;99.90;;;;;;5075157;28;20448;-24
2022/06/28 00:34:56;;;;;;;52.97;34.95;;;10.90;99.90;;;;;;5075378;28;20076;-24
2022/06/28 00:37:21;;;;;;;56.85;32.03;;;10.90;99.90;;;;;;5073780;28;20394;-24
2022/06/28 00:39:47;;;;;;;52.50;32.70;;;10.90;99.90;;;;;;5074882;28;20046;-24
2022/06/28 00:42:13;;;;;;;47.60;30.42;;;10.80;99.90;;;;;;5075183;28;20095;-24
2022/06/28 00:44:39;;;;;;;48.95;31.77;;;10.80;99.90;;;;;;5074870;28;20048;-24
2022/06/28 00:47:07;;;;;;;57.33;34.90;;;10.80;99.90;;;;;;5074865;28;20082;-24
2022/06/28 00:49:33;;;;;;;56.25;35.05;;;10.80;99.90;;;;;;5075332;28;20036;-24
2022/06/28 00:52:02;;;;;;;56.13;35.05;;;10.80;99.90;;;;;;5073748;28;20564;-24
2022/06/28 00:54:29;;;;;;;53.65;33.97;;;10.80;99.90;;;;;;5075288;28;20053;-24
2022/06/28 00:56:55;;;;;;;54.20;33.50;;;10.80;99.90;;;;;;5075467;28;20045;-24
2022/06/28 00:59:21;;;;;;;53.70;34.95;;;10.80;99.90;;;;;;5074175;28;20348;-24
2022/06/28 01:01:47;;;;;;;51.13;34.17;;;10.90;99.90;;;;;;5073300;28;20041;-24
2022/06/28 01:04:12;;;;;;;52.95;33.42;;;10.90;99.90;;;;;;5074181;28;20056;-24
2022/06/28 01:06:39;;;;;;;55.47;33.50;;;10.80;99.90;;;;;;5073078;28;20048;-24
2022/06/28 01:09:05;;;;;;;55.38;35.75;;;10.90;99.90;;;;;;5074432;28;20060;-24
2022/06/28 01:11:32;;;;;;;53.88;35.05;;;10.80;99.90;;;;;;5074422;28;20040;-24
2022/06/28 01:14:07;;;;;;;66.30;37.10;;;10.70;99.90;;;;;;5073088;28;20138;-24
2022/06/28 01:16:33;;;;;;;56.00;34.38;;;10.60;99.90;;;;;;5074916;28;20048;-24
2022/06/28 01:18:59;;;;;;;59.00;36.92;;;10.70;99.90;;;;;;5074574;28;20037;-24
2022/06/28 01:21:27;;;;;;;72.13;41.25;;;10.70;99.90;;;;;;5073623;28;20135;-24
2022/06/28 01:23:54;;;;;;;65.18;37.70;;;10.70;99.90;;;;;;5074676;28;20106;-24
2022/06/28 01:26:20;;;;;;;64.30;34.97;;;10.70;99.90;;;;;;5074109;28;20049;-24
2022/06/28 01:28:47;;;;;;;71.20;39.88;;;10.70;99.90;;;;;;5074123;28;20040;-24
2022/06/28 01:31:13;;;;;;;62.72;35.20;;;10.70;99.90;;;;;;5056711;28;20482;-24
2022/06/28 01:33:40;;;;;;;72.78;39.55;;;10.70;99.90;;;;;;5073659;28;20070;-24
2022/06/28 01:36:07;;;;;;;63.03;36.80;;;10.70;99.90;;;;;;5073339;28;20094;-23
2022/06/28 01:38:34;;;;;;;67.03;37.97;;;10.70;99.90;;;;;;5072984;28;20448;-23
2022/06/28 01:40:59;;;;;;;58.58;34.58;;;10.80;99.90;;;;;;5073906;28;20044;-23
2022/06/28 01:43:26;;;;;;;62.40;35.97;;;10.70;99.90;;;;;;5073934;28;20047;-23
2022/06/28 01:45:53;;;;;;;69.72;40.50;;;10.70;99.90;;;;;;5073841;28;20052;-23
2022/06/28 01:48:19;;;;;;;60.10;36.53;;;10.70;99.90;;;;;;5072846;28;20048;-23
2022/06/28 01:50:46;;;;;;;43.75;27.90;;;10.70;99.90;;;;;;5073769;28;20040;-23
2022/06/28 01:53:12;;;;;;;67.50;38.65;;;10.80;99.90;;;;;;5073743;28;20493;-23
2022/06/28 01:55:38;;;;;;;50.72;32.72;;;10.80;99.90;;;;;;5073124;28;20080;-23
2022/06/28 01:58:04;;;;;;;46.00;29.40;;;10.80;99.90;;;;;;5073660;28;20135;-23
2022/06/28 02:00:29;;;;;;;54.88;34.72;;;10.90;99.90;;;;;;5073370;28;20055;-24
2022/06/28 02:02:56;;;;;;;50.45;30.83;;;10.80;99.90;;;;;;5073697;28;20051;-23
2022/06/28 02:05:22;;;;;;;52.30;30.15;;;10.90;99.90;;;;;;5073652;28;20040;-23
2022/06/28 02:07:51;;;;;;;46.40;28.13;;;10.90;99.90;;;;;;5073847;28;20056;-23
2022/06/28 02:10:20;;;;;;;43.83;29.83;;;10.80;99.90;;;;;;5073269;28;20520;-23
2022/06/28 02:12:46;;;;;;;40.67;27.65;;;10.80;99.90;;;;;;5074374;28;20044;-24
2022/06/28 02:15:12;;;;;;;52.58;27.70;;;10.80;99.90;;;;;;5073508;28;20044;-23
2022/06/28 02:17:38;;;;;;;42.53;26.95;;;10.70;99.90;;;;;;5072379;28;20048;-23
2022/06/28 02:20:04;;;;;;;46.75;28.42;;;10.80;99.90;;;;;;5073435;28;20041;-23
2022/06/28 02:22:30;;;;;;;42.85;29.48;;;10.70;99.90;;;;;;5073511;28;20048;-23
2022/06/28 02:24:56;;;;;;;43.83;25.77;;;10.70;99.90;;;;;;5073506;28;20394;-23
2022/06/28 02:27:22;;;;;;;38.90;27.50;;;10.70;99.90;;;;;;5072333;28;20386;-23
2022/06/28 02:29:48;;;;;;;41.72;27.65;;;10.60;99.90;;;;;;5072243;28;20037;-23
2022/06/28 02:32:13;;;;;;;43.28;29.13;;;10.60;99.90;;;;;;5076723;28;20049;-23
2022/06/28 02:40:21;;;;;;;48.03;28.48;;;10.60;99.90;;;;;;5077560;28;20044;-22
2022/06/28 02:42:52;;;;;;;42.90;26.77;;;10.50;99.90;;;;;;5077270;28;20101;-22
2022/06/28 02:45:19;;;;;;;41.33;26.80;;;10.50;99.90;;;;;;5076323;28;20044;-23
2022/06/28 02:47:45;;;;;;;41.80;24.85;;;10.50;99.90;;;;;;5077152;28;20049;-22
2022/06/28 02:50:11;;;;;;;48.72;25.83;;;10.40;99.90;;;;;;5077644;28;20074;-23
2022/06/28 02:52:37;;;;;;;42.60;25.77;;;10.40;99.90;;;;;;5059705;28;20036;-22
2022/06/28 02:55:03;;;;;;;40.10;23.73;;;10.40;99.90;;;;;;5076039;28;20117;-22
2022/06/28 02:57:29;;;;;;;37.75;23.52;;;10.30;99.90;;;;;;5076035;28;20056;-22
2022/06/28 02:59:55;;;;;;;43.45;26.92;;;10.40;99.90;;;;;;5076816;28;20475;-22
2022/06/28 03:02:21;;;;;;;44.97;27.42;;;10.30;99.90;;;;;;5076827;28;20102;-22
2022/06/28 03:04:46;;;;;;;44.25;27.05;;;10.30;99.90;;;;;;5077365;28;20044;-22
2022/06/28 03:07:12;;;;;;;41.20;25.52;;;10.40;99.90;;;;;;5075433;28;20056;-23
2022/06/28 03:09:38;;;;;;;39.45;25.02;;;10.30;99.90;;;;;;5077528;28;20053;-22
2022/06/28 03:12:06;;;;;;;45.50;26.75;;;10.30;99.90;;;;;;5077221;28;20048;-23
2022/06/28 03:14:32;;;;;;;41.90;26.30;;;10.30;99.90;;;;;;5076371;28;20059;-23
2022/06/28 03:16:58;;;;;;;44.05;26.40;;;10.30;99.90;;;;;;5075376;28;20044;-23
2022/06/28 03:19:23;;;;;;;42.85;24.23;;;10.30;99.90;;;;;;5076732;28;20470;-23
2022/06/28 03:21:49;;;;;;;41.88;25.80;;;10.30;99.90;;;;;;5077131;28;20040;-23
2022/06/28 03:24:15;;;;;;;46.38;26.52;;;10.20;99.90;;;;;;5076442;28;20066;-23
2022/06/28 03:26:41;;;;;;;44.65;24.17;;;10.20;99.90;;;;;;5074974;28;20045;-24
2022/06/28 03:29:06;;;;;;;43.15;27.25;;;10.20;99.90;;;;;;5075707;28;20044;-24
2022/06/28 03:31:32;;;;;;;47.17;26.23;;;10.20;99.90;;;;;;5076391;28;20040;-24
2022/06/28 03:33:59;;;;;;;46.70;25.80;;;10.20;99.90;;;;;;5076338;28;20394;-24
2022/06/28 03:36:25;;;;;;;40.78;28.88;;;10.20;99.90;;;;;;5077063;28;20181;-24
2022/06/28 03:38:51;;;;;;;42.00;25.75;;;10.30;99.90;;;;;;5076166;28;20127;-24
2022/06/28 03:41:22;;;;;;;39.75;24.17;;;10.30;99.90;;;;;;5076752;28;20052;-25
2022/06/28 03:43:52;;;;;;;45.72;27.85;;;10.30;99.90;;;;;;5075500;28;20056;-24
2022/06/28 03:46:18;;;;;;;46.40;26.33;;;10.40;99.90;;;;;;5075834;28;20486;-24
2022/06/28 03:48:45;;;;;;;41.85;26.52;;;10.40;99.90;;;;;;5075994;28;20040;-25
2022/06/28 03:51:11;;;;;;;39.03;25.40;;;10.40;99.90;;;;;;5076575;28;20052;-24
2022/06/28 03:53:36;;;;;;;39.00;25.25;;;10.50;99.90;;;;;;5075923;28;20386;-24
2022/06/28 03:56:02;;;;;;;38.05;25.13;;;10.50;99.90;;;;;;5074727;28;20048;-25
2022/06/28 03:58:28;;;;;;;46.22;27.15;;;10.50;99.90;;;;;;5041370;28;20044;-25
2022/06/28 04:00:54;;;;;;;36.75;26.08;;;10.60;99.90;;;;;;5074360;28;20048;-25
2022/06/28 04:03:19;;;;;;;51.45;26.42;;;10.60;99.90;;;;;;5075614;28;20110;-25
2022/06/28 04:05:45;;;;;;;37.63;24.55;;;10.70;99.90;;;;;;5076245;28;20446;-23
2022/06/28 04:08:11;;;;;;;39.80;25.75;;;10.70;99.90;;;;;;5074218;28;20053;-22
2022/06/28 04:10:37;;;;;;;36.95;23.90;;;10.70;99.90;;;;;;5075635;28;20049;-23
2022/06/28 04:13:02;;;;;;;45.97;26.15;;;10.70;99.90;;;;;;5075461;28;20197;-22
2022/06/28 04:15:28;;;;;;;41.03;24.10;;;10.70;99.90;;;;;;5074497;28;20044;-23
2022/06/28 04:17:54;;;;;;;35.95;23.13;;;10.70;99.90;;;;;;5075660;28;20056;-23
2022/06/28 04:20:19;;;;;;;41.10;23.63;;;10.80;99.90;;;;;;5075400;28;20131;-22
2022/06/28 04:22:45;;;;;;;46.13;26.13;;;10.80;99.90;;;;;;5075382;28;20044;-22
2022/06/28 04:25:11;;;;;;;39.40;24.10;;;10.90;99.90;;;;;;5074888;28;20049;-22
2022/06/28 04:27:37;;;;;;;32.80;21.25;;;11.00;99.90;;;;;;5074307;28;20056;-23
2022/06/28 04:30:03;;;;;;;37.53;21.90;;;11.10;99.90;;;;;;5075240;28;20444;-22
2022/06/28 04:32:30;;;;;;;42.30;23.08;;;11.20;99.90;;;;;;5074853;28;20495;-22
2022/06/28 04:34:57;;;;;;;41.15;24.25;;;11.20;99.90;;;;;;5057207;28;20079;-22
2022/06/28 04:37:23;;;;;;;24.73;18.33;;;11.40;99.90;;;;;;5075645;28;20075;-22
2022/06/28 04:39:49;;;;;;;33.05;21.80;;;11.50;99.90;;;;;;5074966;28;20458;-22
2022/06/28 04:42:15;;;;;;;27.63;19.80;;;11.50;99.90;;;;;;5057416;28;20131;-22
2022/06/28 04:44:41;;;;;;;33.60;20.48;;;11.60;99.90;;;;;;5073756;28;20507;-22
2022/06/28 04:47:08;;;;;;;35.35;21.40;;;11.70;99.90;;;;;;5073696;28;20059;-22
2022/06/28 04:49:34;;;;;;;29.63;20.63;;;11.70;99.90;;;;;;5057118;28;20131;-22
2022/06/28 04:52:00;;;;;;;31.38;19.40;;;11.80;99.90;;;;;;5074964;28;20131;-23
2022/06/28 04:54:26;;;;;;;26.75;17.05;;;11.90;99.90;;;;;;5073056;28;20509;-22
2022/06/28 04:56:52;;;;;;;23.00;14.85;;;12.00;99.90;;;;;;5074547;28;20056;-22
2022/06/28 04:59:18;;;;;;;27.40;18.40;;;12.10;99.90;;;;;;5074559;28;20037;-22
2022/06/28 05:01:44;;;;;;;26.90;17.27;;;12.20;99.90;;;;;;5074591;28;20081;-22
2022/06/28 05:04:10;;;;;;;26.58;16.40;;;12.40;99.90;;;;;;5073631;28;20092;-22
2022/06/28 05:06:35;;;;;;;19.83;13.40;;;12.90;99.90;;;;;;5074368;28;20160;-22
2022/06/28 05:09:01;;;;;;;23.17;14.85;;;13.60;99.90;;;;;;5074469;28;20131;-22
2022/06/28 05:11:28;;;;;;;20.90;13.45;;;14.30;99.90;;;;;;5074418;28;20063;-22
2022/06/28 05:13:55;;;;;;;16.38;9.63;;;15.00;99.90;;;;;;5056710;28;20056;-23
2022/06/28 05:16:20;;;;;;;14.88;8.82;;;15.40;99.90;;;;;;5073923;28;20044;-22
2022/06/28 05:18:46;;;;;;;13.18;9.10;;;15.90;99.90;;;;;;5056630;28;20551;-23
2022/06/28 05:21:12;;;;;;;13.48;7.47;;;16.40;99.90;;;;;;5074287;28;20106;-22
2022/06/28 05:23:37;;;;;;;10.38;6.60;;;16.60;99.90;;;;;;5074223;28;20509;-22
2022/06/28 05:26:03;;;;;;;15.18;8.63;;;16.90;1.00;;;;;;5074708;28;20048;-23
2022/06/28 05:28:29;;;;;;;18.25;7.80;;;17.10;99.90;;;;;;5073157;28;20505;-22
2022/06/28 05:30:55;;;;;;;8.68;5.72;;;17.40;1.00;;;;;;5073386;28;20044;-23
2022/06/28 05:33:22;;;;;;;9.52;6.15;;;17.60;1.00;;;;;;5074080;28;20367;-23
2022/06/28 05:35:47;;;;;;;13.02;6.13;;;17.80;99.90;;;;;;5074552;28;20620;-22
2022/06/28 05:38:13;;;;;;;12.35;6.18;;;17.90;99.90;;;;;;5072666;28;20085;-23
2022/06/28 05:40:39;;;;;;;7.57;5.30;;;18.00;78.80;;;;;;5073255;28;20055;-23
2022/06/28 05:43:05;;;;;;;11.52;6.40;;;18.00;1.00;;;;;;5074755;28;20040;-23
2022/06/28 05:45:30;;;;;;;7.93;5.18;;;18.20;1.00;;;;;;5072777;28;20531;-23
2022/06/28 05:47:56;;;;;;;7.35;4.47;;;18.40;1.00;;;;;;5073852;28;20063;-23
2022/06/28 05:50:22;;;;;;;12.80;5.63;;;18.40;1.00;;;;;;5074359;28;20130;-23
2022/06/28 05:52:47;;;;;;;9.55;4.82;;;18.70;1.00;;;;;;5072826;28;20048;-23
2022/06/28 05:55:14;;;;;;;6.68;3.88;;;18.80;99.90;;;;;;5073745;28;20055;-23
2022/06/28 05:57:39;;;;;;;7.90;3.92;;;18.90;99.90;;;;;;5072521;28;20470;-23
2022/06/28 06:00:06;;;;;;;10.27;3.90;;;18.90;99.90;;;;;;5072434;28;20133;-23
2022/06/28 06:02:31;;;;;;;10.07;4.20;;;19.10;99.90;;;;;;5072834;28;20509;-24
2022/06/28 06:04:59;;;;;;;8.85;3.63;;;19.30;99.90;;;;;;5073670;28;20049;-24
2022/06/28 06:07:25;;;;;;;11.73;4.05;;;19.30;99.90;;;;;;5055676;28;20086;-24
2022/06/28 06:09:51;;;;;;;8.35;3.80;;;19.30;82.90;;;;;;5073635;28;20094;-23
2022/06/28 06:12:17;;;;;;;8.80;4.00;;;19.40;99.90;;;;;;5073587;28;20040;-23
2022/06/28 06:14:43;;;;;;;9.57;3.58;;;19.60;91.40;;;;;;5073579;28;20139;-23
2022/06/28 06:17:09;;;;;;;8.02;3.22;;;19.80;1.00;;;;;;5056726;28;20080;-24
2022/06/28 06:19:35;;;;;;;7.20;3.30;;;19.70;1.00;;;;;;5073452;28;20087;-24
2022/06/28 06:22:00;;;;;;;7.57;2.85;;;19.90;1.00;;;;;;5073564;28;20051;-23
2022/06/28 06:24:26;;;;;;;7.95;3.40;;;20.10;1.00;;;;;;5074038;28;20485;-24
2022/06/28 06:26:52;;;;;;;7.63;3.17;;;20.10;1.00;;;;;;5072256;28;20045;-24
2022/06/28 06:29:18;;;;;;;12.20;3.72;;;20.40;1.00;;;;;;5072836;28;20051;-24
2022/06/28 06:31:43;;;;;;;8.60;3.22;;;20.60;1.00;;;;;;5073483;28;20052;-24
2022/06/28 06:34:09;;;;;;;7.93;3.67;;;20.90;99.90;;;;;;5073418;28;20091;-24
2022/06/28 06:36:35;;;;;;;14.85;3.10;;;21.10;99.90;;;;;;5071864;28;20513;-24
2022/06/28 06:39:01;;;;;;;8.02;2.47;;;21.30;99.90;;;;;;5073815;28;20041;-24
2022/06/28 06:41:27;;;;;;;9.73;3.33;;;21.30;83.80;;;;;;5073855;28;20051;-24
2022/06/28 06:43:53;;;;;;;11.07;3.38;;;21.40;95.20;;;;;;5073276;28;20048;-24
2022/06/28 06:46:19;;;;;;;6.30;2.50;;;21.30;32.10;;;;;;5073806;28;20390;-24
2022/06/28 06:48:45;;;;;;;8.52;3.13;;;21.10;18.90;;;;;;5073259;28;20044;-24
2022/06/28 06:51:11;;;;;;;7.90;2.78;;;21.10;68.00;;;;;;5073214;28;20048;-24
2022/06/28 06:53:37;;;;;;;8.38;3.17;;;21.20;91.90;;;;;;5072241;28;20032;-25
2022/06/28 06:56:03;;;;;;;9.20;2.78;;;21.20;91.50;;;;;;5072051;28;20456;-24
2022/06/28 06:58:29;;;;;;;8.40;2.17;;;21.10;8.00;;;;;;5055269;28;20053;-25
2022/06/28 07:00:57;;;;;;;11.43;2.80;;;21.20;45.40;;;;;;5055372;28;20135;-24
2022/06/28 07:03:23;;;;;;;8.75;2.58;;;21.00;99.90;;;;;;5072450;28;20053;-25
2022/06/28 07:05:49;;;;;;;7.18;2.08;;;21.00;99.90;;;;;;5072807;28;20509;-25
2022/06/28 07:08:15;;;;;;;10.65;2.85;;;21.10;10.70;;;;;;5073258;28;20045;-25
2022/06/28 07:10:41;;;;;;;11.45;2.25;;;21.30;1.00;;;;;;5073611;28;20044;-25
2022/06/28 07:13:06;;;;;;;9.93;2.20;;;21.50;1.00;;;;;;5073035;28;20044;-25
2022/06/28 07:15:32;;;;;;;7.47;1.90;;;21.50;1.00;;;;;;5072912;28;20076;-25
2022/06/28 07:17:58;;;;;;;8.15;2.10;;;21.70;1.00;;;;;;5073535;28;20052;-25
2022/06/28 07:20:23;;;;;;;13.23;2.35;;;21.60;1.00;;;;;;5076579;28;20049;-25
2022/06/28 07:22:49;;;;;;;7.70;1.80;;;21.80;1.00;;;;;;5075342;28;20147;-25
2022/06/28 07:25:15;;;;;;;9.15;2.38;;;22.20;99.90;;;;;;5075552;28;20063;-25
2022/06/28 07:27:41;;;;;;;9.48;2.10;;;22.70;99.90;;;;;;5075524;28;20049;-25
2022/06/28 07:30:08;;;;;;;7.40;1.40;;;22.60;1.00;;;;;;5075233;28;20119;-25
2022/06/28 07:32:34;;;;;;;7.55;1.27;;;21.80;1.00;;;;;;5058687;28;20147;-25
2022/06/28 07:35:00;;;;;;;7.72;1.75;;;20.80;99.90;;;;;;5076319;28;20041;-25
2022/06/28 07:37:26;;;;;;;6.53;1.67;;;20.30;1.00;;;;;;5075060;28;20044;-25
2022/06/28 07:39:51;;;;;;;5.85;1.30;;;20.40;1.00;;;;;;5074994;28;20059;-25
2022/06/28 07:42:17;;;;;;;6.45;1.75;;;20.70;1.00;;;;;;5076765;28;20055;-25
2022/06/28 07:44:43;;;;;;;5.32;1.15;;;21.10;99.90;;;;;;5076986;28;20107;-25
2022/06/28 07:47:09;;;;;;;11.93;1.50;;;21.60;99.90;;;;;;5075155;28;20040;-25
2022/06/28 07:52:34;;;;;;;7.57;1.67;;;21.70;1.00;;;;;;5076068;28;20052;-25
2022/06/28 07:55:01;;;;;;;6.38;1.10;;;22.20;1.00;;;;;;5075538;28;20123;-25
2022/06/28 07:57:27;;;;;;;7.88;1.52;;;22.00;99.90;;;;;;5075912;28;20048;-25
2022/06/28 07:59:53;;;;;;;5.15;1.10;;;20.90;99.90;;;;;;5074579;28;20482;-25
2022/06/28 08:02:19;;;;;;;8.63;1.38;;;20.00;7.10;;;;;;5076345;28;20044;-25
2022/06/28 08:04:45;;;;;;;7.60;1.58;;;20.20;99.90;;;;;;5075793;28;20051;-25
2022/06/28 08:07:11;;;;;;;9.20;1.27;;;20.40;99.90;;;;;;5075005;28;20415;-25
2022/06/28 08:09:37;;;;;;;3.35;1.05;;;20.00;52.90;;;;;;5075651;28;20044;-25
2022/06/28 08:12:03;;;;;;;5.65;1.10;;;19.80;99.90;;;;;;5076197;28;20044;-25
2022/06/28 08:14:29;;;;;;;7.10;1.10;;;19.90;99.90;;;;;;5075501;28;20052;-25
2022/06/28 08:16:55;;;;;;;8.52;1.08;;;20.60;99.90;;;;;;5075489;28;20055;-25
2022/06/28 08:19:21;;;;;;;3.17;0.93;;;21.20;1.00;;;;;;5074212;28;20189;-25
2022/06/28 08:21:49;;;;;;;3.67;0.90;;;21.80;99.90;;;;;;5057777;28;20406;-25
2022/06/28 08:24:15;;;;;;;3.78;0.70;;;22.10;1.00;;;;;;5074683;28;20394;-25
2022/06/28 08:26:42;;;;;;;9.38;1.98;;;22.30;1.00;;;;;;5075326;28;20037;-25
2022/06/28 08:29:17;;;;;;;6.93;1.15;;;22.30;99.90;;;;;;5073888;28;20055;-25
2022/06/28 08:31:43;;;;;;;4.38;0.68;;;22.10;1.00;;;;;;5074217;28;20044;-25
2022/06/28 08:34:09;;;;;;;3.70;0.75;;;21.50;99.90;;;;;;5056914;28;20040;-25
2022/06/28 08:36:35;;;;;;;3.13;0.55;;;21.60;1.00;;;;;;5075641;28;20435;-25
2022/06/28 08:39:03;;;;;;;4.57;1.23;;;21.60;1.00;;;;;;5074996;28;20536;-25
2022/06/28 08:41:32;;;;;;;2.38;0.75;;;21.60;1.00;;;;;;5075065;28;20497;-25
2022/06/28 08:43:58;;;;;;;4.88;0.75;;;22.20;1.00;;;;;;5075005;28;20053;-25
2022/06/28 08:46:24;;;;;;;2.58;0.55;;;22.30;1.00;;;;;;5074239;28;20140;-25
2022/06/28 08:49:01;;;;;;;7.32;1.27;;;21.80;1.00;;;;;;5074907;28;20115;-25
2022/06/28 08:51:30;;;;;;;2.65;0.70;;;21.90;1.00;;;;;;5074273;28;20429;-25
2022/06/28 08:53:59;;;;;;;10.90;1.08;;;22.30;99.90;;;;;;5074763;28;20048;-25
2022/06/28 08:56:25;;;;;;;4.82;1.13;;;22.50;99.90;;;;;;5074749;28;20059;-26
2022/06/28 08:58:51;;;;;;;7.43;1.10;;;22.50;1.00;;;;;;5074933;28;20040;-25
2022/06/28 09:01:20;;;;;;;7.60;1.10;;;22.10;1.10;;;;;;5074659;28;20048;-25
2022/06/28 09:03:51;;;;;;;3.88;0.95;;;22.40;25.20;;;;;;5073644;28;20048;-25
2022/06/28 09:06:16;;;;;;;4.30;1.10;;;22.50;1.00;;;;;;5074882;28;20071;-27
2022/06/28 09:08:42;;;;;;;4.97;1.10;;;22.60;1.00;;;;;;5074241;28;20490;-26
2022/06/28 09:11:08;;;;;;;4.70;0.98;;;22.70;1.00;;;;;;5073278;28;20036;-26
2022/06/28 09:13:40;;;;;;;10.65;1.60;;;23.00;1.00;;;;;;5074439;28;20125;-26
2022/06/28 09:16:06;;;;;;;7.15;1.33;;;22.80;1.00;;;;;;5074284;28;20045;-26
2022/06/28 09:18:34;;;;;;;8.32;1.00;;;22.50;1.00;;;;;;5074278;28;20041;-25
2022/06/28 09:21:00;;;;;;;7.60;1.42;;;21.70;1.00;;;;;;5074553;28;20084;-25
2022/06/28 09:23:38;;;;;;;6.25;1.33;;;21.40;99.90;;;;;;5056391;28;20048;-26
2022/06/28 09:26:17;;;;;;;10.13;1.02;;;21.50;94.20;;;;;;5074520;28;20045;-26
2022/06/28 09:28:45;;;;;;;5.47;1.10;;;21.30;1.00;;;;;;5074750;28;20051;-25
2022/06/28 09:31:21;;;;;;;5.47;1.10;;;21.70;92.00;;;;;;5072950;28;20094;-26
2022/06/28 09:34:01;;;;;;;7.32;1.55;;;21.90;1.00;;;;;;5074066;28;20482;-26
2022/06/28 09:36:30;;;;;;;4.03;0.98;;;22.50;99.90;;;;;;5074615;28;20041;-26
2022/06/28 09:38:57;;;;;;;5.75;1.25;;;22.80;99.90;;;;;;5073893;28;20048;-26
2022/06/28 09:41:26;;;;;;;7.03;0.90;;;22.40;99.90;;;;;;5072239;28;20552;-25
2022/06/28 09:44:07;;;;;;;8.40;1.83;;;21.90;99.90;;;;;;5073965;28;20048;-26
2022/06/28 09:46:33;;;;;;;6.18;1.30;;;21.10;99.90;;;;;;5073272;28;20494;-25
2022/06/28 09:49:03;;;;;;;5.75;1.17;;;20.30;99.90;;;;;;5072747;28;20055;-26
2022/06/28 09:51:31;;;;;;;5.22;1.10;;;19.90;99.90;;;;;;5073734;28;20123;-26
2022/06/28 09:54:06;;;;;;;7.22;1.17;;;19.50;1.00;;;;;;5074105;28;20052;-29
2022/06/28 09:56:42;;;;;;;3.60;1.15;;;19.30;1.00;;;;;;5073517;28;20379;-26
2022/06/28 09:59:09;;;;;;;4.85;1.30;;;19.50;45.90;;;;;;5073691;28;20119;-26
2022/06/28 10:01:35;;;;;;;6.07;1.08;;;19.90;1.00;;;;;;5074256;28;20045;-26
2022/06/28 10:04:02;;;;;;;7.78;1.70;;;20.30;42.10;;;;;;5073684;28;20045;-26
2022/06/28 10:06:28;;;;;;;7.32;1.20;;;20.50;1.00;;;;;;5073677;28;20045;-26
2022/06/28 10:08:54;;;;;;;9.20;2.05;;;20.80;1.00;;;;;;5072324;28;20462;-26
2022/06/28 10:11:20;;;;;;;7.47;1.30;;;20.90;99.90;;;;;;5073614;28;20094;-26
2022/06/28 10:16:57;;;;;;;4.28;1.42;;;21.80;99.90;;;;;;5074217;28;20091;-26
2022/06/28 10:19:25;;;;;;;7.22;1.92;;;22.80;82.50;;;;;;5074106;28;20048;-26
2022/06/28 10:21:51;;;;;;;5.25;1.35;;;23.50;99.90;;;;;;5073512;28;20497;-26
2022/06/28 10:24:18;;;;;;;9.23;1.85;;;23.90;17.90;;;;;;5073521;28;20127;-26
2022/06/28 10:27:10;;;;;;;4.85;1.50;;;24.10;1.00;;;;;;5072801;28;20135;-26
2022/06/28 10:30:00;;;;;;;4.45;1.13;;;24.10;1.00;;;;;;5073135;28;20094;-26
2022/06/28 10:33:00;;;;;;;7.55;1.50;;;24.20;1.00;;;;;;5073472;28;20049;-27
2022/06/28 10:35:32;;;;;;;5.55;1.45;;;24.70;1.00;;;;;;5073650;28;20356;-26
2022/06/28 10:38:10;;;;;;;4.90;1.50;;;24.90;1.00;;;;;;5074265;28;20402;-26
2022/06/28 10:40:47;;;;;;;6.80;1.38;;;24.50;1.00;;;;;;5073562;28;20501;-26
2022/06/28 10:43:15;;;;;;;6.78;1.55;;;24.50;1.00;;;;;;5074187;28;20044;-26
2022/06/28 10:46:02;;;;;;;6.43;1.20;;;24.30;1.00;;;;;;5073859;28;20045;-26
2022/06/28 10:48:29;;;;;;;4.07;1.05;;;24.30;99.90;;;;;;5073564;28;20047;-26
2022/06/28 10:51:00;;;;;;;3.88;1.15;;;24.20;99.90;;;;;;5073234;28;20133;-26
2022/06/28 10:53:50;;;;;;;6.70;0.85;;;24.20;99.90;;;;;;5073833;28;20048;-26
2022/06/28 10:56:17;;;;;;;5.07;0.85;;;24.40;99.90;;;;;;5077030;28;20048;-28
2022/06/28 10:59:04;;;;;;;6.75;1.10;;;24.90;99.90;;;;;;5077544;28;20033;-27
2022/06/28 11:01:42;;;;;;;3.25;0.85;;;25.20;99.90;;;;;;5077008;28;20094;-26
2022/06/28 11:04:23;;;;;;;4.72;0.88;;;25.70;99.90;;;;;;5077542;28;20088;-26
2022/06/28 11:06:58;;;;;;;6.53;1.70;;;25.20;99.90;;;;;;5076698;28;20082;-26
2022/06/28 11:09:45;;;;;;;4.70;1.10;;;24.90;99.90;;;;;;5076931;28;20053;-27
2022/06/28 11:12:27;;;;;;;5.55;0.85;;;24.80;99.90;;;;;;5076832;28;20044;-26
2022/06/28 11:15:00;;;;;;;4.40;1.20;;;25.10;99.90;;;;;;5076998;28;20387;-26
2022/06/28 11:17:30;;;;;;;;;;;24.50;99.90;;;;;;5077032;28;20056;-26
2022/06/28 11:20:00;;;;;;;4.57;1.17;;;23.40;99.90;;;;;;5075413;28;20382;-27
2022/06/28 11:22:32;;;;;;;4.03;1.13;;;22.90;99.90;;;;;;5076473;28;20048;-26
2022/06/28 11:25:02;;;;;;;7.68;1.80;;;22.60;99.90;;;;;;5076603;28;20040;-26
2022/06/28 11:27:28;;;;;;;10.73;1.58;;;22.30;1.00;;;;;;5076489;28;20086;-26
2022/06/28 11:30:01;;;;;;;5.63;1.25;;;22.00;1.00;;;;;;5076416;28;20131;-26
2022/06/28 11:32:33;;;;;;;6.57;1.30;;;22.20;22.00;;;;;;5076130;28;20048;-26
2022/06/28 11:35:04;;;;;;;6.65;1.33;;;23.30;21.50;;;;;;5076371;28;20044;-26
2022/06/28 11:37:33;;;;;;;2.70;1.00;;;24.70;1.00;;;;;;5076961;28;20051;-26
2022/06/28 11:40:01;;;;;;;3.83;1.10;;;25.50;99.90;;;;;;5076775;28;20291;-26
2022/06/28 11:42:27;;;;;;;4.82;1.10;;;25.90;99.90;;;;;;5077069;28;20114;-26
2022/06/28 11:44:54;;;;;;;9.65;1.70;;;26.40;99.90;;;;;;5077009;28;20041;-26
2022/06/28 11:47:20;;;;;;;6.80;1.35;;;26.50;99.90;;;;;;5076141;28;20052;-27
2022/06/28 11:50:10;;;;;;;5.28;1.20;;;26.40;99.90;;;;;;5076143;28;20040;-26
2022/06/28 11:52:54;;;;;;;4.72;1.42;;;26.10;99.90;;;;;;5075744;28;20056;-26
2022/06/28 11:55:41;;;;;;;4.35;1.52;;;25.00;99.90;;;;;;5076056;28;20091;-26
2022/06/28 11:58:19;;;;;;;2.75;0.93;;;24.60;99.90;;;;;;5075661;28;20552;-26
2022/06/28 12:01:16;;;;;;;3.85;1.17;;;24.40;99.90;;;;;;5076237;28;20049;-26
2022/06/28 12:03:42;;;;;;;6.07;1.30;;;23.90;99.90;;;;;;5074873;28;20052;-26
2022/06/28 12:06:09;;;;;;;3.92;1.00;;;23.30;99.90;;;;;;5075788;28;20047;-26
2022/06/28 12:08:47;;;;;;;6.43;1.35;;;23.30;1.00;;;;;;5076255;28;20536;-26
2022/06/28 12:11:36;;;;;;;7.97;1.70;;;23.70;99.90;;;;;;5076036;28;20390;-26
2022/06/28 12:14:16;;;;;;;5.85;1.10;;;23.70;99.90;;;;;;5075510;28;20131;-26
2022/06/28 12:16:48;;;;;;;5.78;1.33;;;23.50;99.90;;;;;;5076479;28;20037;-26
2022/06/28 12:19:20;;;;;;;4.30;1.13;;;23.30;99.90;;;;;;5075461;28;20087;-26
2022/06/28 12:22:05;;;;;;;;;;;22.90;99.90;;;;;;5075093;28;20045;-27
2022/06/28 12:24:55;;;;;;;2.67;0.85;;;22.90;1.00;;;;;;5075745;28;19920;-27
2022/06/28 12:27:34;;;;;;;4.35;0.90;;;22.80;1.00;;;;;;5075454;28;20052;-26
2022/06/28 12:30:01;;;;;;;14.65;1.83;;;22.50;1.00;;;;;;5075389;28;20080;-26
2022/06/28 12:32:28;;;;;;;5.72;1.13;;;22.20;1.00;;;;;;5076126;28;20411;-26
2022/06/28 12:34:58;;;;;;;6.75;1.55;;;22.10;1.00;;;;;;5075197;28;20094;-26
2022/06/28 12:37:25;;;;;;;13.18;1.50;;;22.20;1.00;;;;;;5075147;28;20060;-26
2022/06/28 12:39:51;;;;;;;5.57;0.98;;;22.60;1.00;;;;;;5075647;28;20098;-26
2022/06/28 12:42:17;;;;;;;4.47;1.15;;;23.50;1.00;;;;;;5075928;28;20441;-27
2022/06/28 12:44:43;;;;;;;6.72;1.10;;;24.00;1.00;;;;;;5074077;28;20085;-27
2022/06/28 12:47:10;;;;;;;5.55;1.38;;;24.40;99.90;;;;;;5074095;28;20127;-26
2022/06/28 12:49:35;;;;;;;6.20;1.50;;;24.50;99.90;;;;;;5074886;28;20040;-26
2022/06/28 12:52:01;;;;;;;8.32;1.80;;;24.20;99.90;;;;;;5074882;28;20051;-26
2022/06/28 12:54:27;;;;;;;6.22;1.25;;;23.70;99.90;;;;;;5074822;28;20048;-26
2022/06/28 12:56:53;;;;;;;6.90;1.80;;;23.70;1.00;;;;;;5074783;28;20053;-26
2022/06/28 12:59:19;;;;;;;11.60;2.45;;;24.10;1.00;;;;;;5074149;28;20048;-26